sensor_id;sensor_type;location;lat;lon;timestamp;P1;durP1;ratioP1;P2;durP2;ratioP2
61553;SDS011;47425;51.976;5.326;2023-07-30T00:01:53;2.60;;;1.27;;
61553;SDS011;47425;51.976;5.326;2023-07-30T00:04:20;3.08;;;1.33;;
61553;SDS011;47425;51.976;5.326;2023-07-30T00:06:47;3.95;;;1.50;;
61553;SDS011;47425;51.976;5.326;2023-07-30T00:09:16;3.67;;;1.90;;
61553;SDS011;47425;51.976;5.326;2023-07-30T00:11:43;3.20;;;1.52;;
61553;SDS011;47425;51.976;5.326;2023-07-30T00:14:14;6.38;;;1.80;;
61553;SDS011;47425;51.976;5.326;2023-07-30T00:16:46;4.88;;;1.55;;
61553;SDS011;47425;51.976;5.326;2023-07-30T00:19:12;2.83;;;1.30;;
61553;SDS011;47425;51.976;5.326;2023-07-30T00:21:41;2.95;;;1.63;;
61553;SDS011;47425;51.976;5.326;2023-07-30T00:24:14;5.53;;;1.95;;
61553;SDS011;47425;51.976;5.326;2023-07-30T00:26:43;3.78;;;1.65;;
61553;SDS011;47425;51.976;5.326;2023-07-30T00:29:10;5.28;;;2.05;;
61553;SDS011;47425;51.976;5.326;2023-07-30T00:31:38;4.10;;;1.80;;
61553;SDS011;47425;51.976;5.326;2023-07-30T00:34:06;3.78;;;1.75;;
61553;SDS011;47425;51.976;5.326;2023-07-30T00:36:35;5.35;;;1.88;;
61553;SDS011;47425;51.976;5.326;2023-07-30T00:39:05;5.72;;;2.00;;
61553;SDS011;47425;51.976;5.326;2023-07-30T00:41:37;3.15;;;1.63;;
61553;SDS011;47425;51.976;5.326;2023-07-30T00:44:10;13.02;;;3.03;;
61553;SDS011;47425;51.976;5.326;2023-07-30T00:46:46;6.07;;;2.13;;
61553;SDS011;47425;51.976;5.326;2023-07-30T00:49:22;3.13;;;1.60;;
61553;SDS011;47425;51.976;5.326;2023-07-30T00:51:48;6.47;;;2.30;;
61553;SDS011;47425;51.976;5.326;2023-07-30T00:54:16;5.53;;;2.00;;
61553;SDS011;47425;51.976;5.326;2023-07-30T00:56:48;3.03;;;1.38;;
61553;SDS011;47425;51.976;5.326;2023-07-30T00:59:21;7.20;;;2.20;;
61553;SDS011;47425;51.976;5.326;2023-07-30T01:01:49;8.75;;;2.58;;
61553;SDS011;47425;51.976;5.326;2023-07-30T01:04:20;8.07;;;2.00;;
61553;SDS011;47425;51.976;5.326;2023-07-30T01:06:48;2.15;;;1.30;;
61553;SDS011;47425;51.976;5.326;2023-07-30T01:09:17;2.92;;;1.42;;
61553;SDS011;47425;51.976;5.326;2023-07-30T01:11:45;8.55;;;2.63;;
61553;SDS011;47425;51.976;5.326;2023-07-30T01:14:28;4.72;;;1.60;;
61553;SDS011;47425;51.976;5.326;2023-07-30T01:16:57;2.97;;;1.70;;
61553;SDS011;47425;51.976;5.326;2023-07-30T01:19:30;4.90;;;1.80;;
61553;SDS011;47425;51.976;5.326;2023-07-30T01:21:59;9.82;;;2.90;;
61553;SDS011;47425;51.976;5.326;2023-07-30T01:24:25;6.28;;;1.90;;
61553;SDS011;47425;51.976;5.326;2023-07-30T01:26:54;3.85;;;1.70;;
61553;SDS011;47425;51.976;5.326;2023-07-30T01:29:32;5.38;;;2.00;;
61553;SDS011;47425;51.976;5.326;2023-07-30T01:32:07;6.03;;;2.10;;
61553;SDS011;47425;51.976;5.326;2023-07-30T01:34:36;7.00;;;1.92;;
61553;SDS011;47425;51.976;5.326;2023-07-30T01:37:11;3.97;;;1.75;;
61553;SDS011;47425;51.976;5.326;2023-07-30T01:39:41;3.55;;;1.73;;
61553;SDS011;47425;51.976;5.326;2023-07-30T01:42:11;3.42;;;1.30;;
61553;SDS011;47425;51.976;5.326;2023-07-30T01:44:38;4.03;;;1.83;;
61553;SDS011;47425;51.976;5.326;2023-07-30T01:47:06;4.97;;;2.08;;
61553;SDS011;47425;51.976;5.326;2023-07-30T01:49:33;3.30;;;1.40;;
61553;SDS011;47425;51.976;5.326;2023-07-30T01:51:59;7.03;;;2.22;;
61553;SDS011;47425;51.976;5.326;2023-07-30T01:54:30;4.90;;;1.70;;
61553;SDS011;47425;51.976;5.326;2023-07-30T01:56:59;5.63;;;1.83;;
61553;SDS011;47425;51.976;5.326;2023-07-30T01:59:28;3.70;;;1.38;;
61553;SDS011;47425;51.976;5.326;2023-07-30T02:01:55;6.15;;;1.92;;
61553;SDS011;47425;51.976;5.326;2023-07-30T02:04:22;7.00;;;2.00;;
61553;SDS011;47425;51.976;5.326;2023-07-30T02:06:49;5.85;;;2.10;;
61553;SDS011;47425;51.976;5.326;2023-07-30T02:09:31;2.97;;;1.42;;
61553;SDS011;47425;51.976;5.326;2023-07-30T02:12:00;5.30;;;1.63;;
61553;SDS011;47425;51.976;5.326;2023-07-30T02:14:27;8.02;;;2.17;;
61553;SDS011;47425;51.976;5.326;2023-07-30T02:17:00;13.45;;;2.88;;
61553;SDS011;47425;51.976;5.326;2023-07-30T02:19:27;6.88;;;2.42;;
61553;SDS011;47425;51.976;5.326;2023-07-30T02:21:58;5.07;;;2.22;;
61553;SDS011;47425;51.976;5.326;2023-07-30T02:24:27;3.60;;;1.52;;
61553;SDS011;47425;51.976;5.326;2023-07-30T02:26:55;6.28;;;2.13;;
61553;SDS011;47425;51.976;5.326;2023-07-30T02:29:21;3.15;;;1.23;;
61553;SDS011;47425;51.976;5.326;2023-07-30T02:31:48;15.52;;;3.63;;
61553;SDS011;47425;51.976;5.326;2023-07-30T02:34:18;5.22;;;1.55;;
61553;SDS011;47425;51.976;5.326;2023-07-30T02:36:45;3.75;;;1.52;;
61553;SDS011;47425;51.976;5.326;2023-07-30T02:39:12;10.88;;;2.40;;
61553;SDS011;47425;51.976;5.326;2023-07-30T02:41:40;6.18;;;1.52;;
61553;SDS011;47425;51.976;5.326;2023-07-30T02:44:08;3.03;;;1.50;;
61553;SDS011;47425;51.976;5.326;2023-07-30T02:46:35;7.13;;;2.05;;
61553;SDS011;47425;51.976;5.326;2023-07-30T02:49:02;7.68;;;2.33;;
61553;SDS011;47425;51.976;5.326;2023-07-30T02:51:29;6.22;;;2.10;;
61553;SDS011;47425;51.976;5.326;2023-07-30T02:53:58;8.20;;;2.63;;
61553;SDS011;47425;51.976;5.326;2023-07-30T02:56:29;18.50;;;3.35;;
61553;SDS011;47425;51.976;5.326;2023-07-30T02:59:02;8.88;;;2.38;;
61553;SDS011;47425;51.976;5.326;2023-07-30T03:01:31;13.55;;;3.28;;
61553;SDS011;47425;51.976;5.326;2023-07-30T03:04:05;19.67;;;4.65;;
61553;SDS011;47425;51.976;5.326;2023-07-30T03:06:31;4.97;;;1.85;;
61553;SDS011;47425;51.976;5.326;2023-07-30T03:09:00;6.63;;;1.85;;
61553;SDS011;47425;51.976;5.326;2023-07-30T03:11:27;13.40;;;3.90;;
61553;SDS011;47425;51.976;5.326;2023-07-30T03:14:16;21.55;;;5.25;;
61553;SDS011;47425;51.976;5.326;2023-07-30T03:16:50;17.85;;;4.70;;
61553;SDS011;47425;51.976;5.326;2023-07-30T03:19:17;14.10;;;3.42;;
61553;SDS011;47425;51.976;5.326;2023-07-30T03:21:44;14.52;;;4.28;;
61553;SDS011;47425;51.976;5.326;2023-07-30T03:24:10;8.90;;;2.67;;
61553;SDS011;47425;51.976;5.326;2023-07-30T03:26:37;9.88;;;2.92;;
61553;SDS011;47425;51.976;5.326;2023-07-30T03:29:04;16.80;;;4.25;;
61553;SDS011;47425;51.976;5.326;2023-07-30T03:31:33;11.60;;;2.95;;
61553;SDS011;47425;51.976;5.326;2023-07-30T03:34:00;13.43;;;4.45;;
61553;SDS011;47425;51.976;5.326;2023-07-30T03:36:27;6.25;;;2.33;;
61553;SDS011;47425;51.976;5.326;2023-07-30T03:38:55;9.45;;;2.53;;
61553;SDS011;47425;51.976;5.326;2023-07-30T03:43:49;15.68;;;3.67;;
61553;SDS011;47425;51.976;5.326;2023-07-30T03:46:18;9.35;;;3.17;;
61553;SDS011;47425;51.976;5.326;2023-07-30T03:48:47;15.10;;;3.42;;
61553;SDS011;47425;51.976;5.326;2023-07-30T03:51:13;5.55;;;2.47;;
61553;SDS011;47425;51.976;5.326;2023-07-30T03:53:41;5.30;;;2.17;;
61553;SDS011;47425;51.976;5.326;2023-07-30T03:56:08;20.83;;;5.60;;
61553;SDS011;47425;51.976;5.326;2023-07-30T03:58:36;8.68;;;3.13;;
61553;SDS011;47425;51.976;5.326;2023-07-30T04:01:03;20.25;;;4.60;;
61553;SDS011;47425;51.976;5.326;2023-07-30T04:03:30;12.30;;;3.33;;
61553;SDS011;47425;51.976;5.326;2023-07-30T04:06:01;6.55;;;2.20;;
61553;SDS011;47425;51.976;5.326;2023-07-30T04:08:28;15.88;;;4.85;;
61553;SDS011;47425;51.976;5.326;2023-07-30T04:10:55;4.22;;;1.83;;
61553;SDS011;47425;51.976;5.326;2023-07-30T04:13:25;10.50;;;4.15;;
61553;SDS011;47425;51.976;5.326;2023-07-30T04:15:52;3.75;;;1.50;;
61553;SDS011;47425;51.976;5.326;2023-07-30T04:18:22;8.45;;;2.33;;
61553;SDS011;47425;51.976;5.326;2023-07-30T04:20:49;17.85;;;4.72;;
61553;SDS011;47425;51.976;5.326;2023-07-30T04:23:17;8.60;;;2.72;;
61553;SDS011;47425;51.976;5.326;2023-07-30T04:25:44;6.25;;;2.33;;
61553;SDS011;47425;51.976;5.326;2023-07-30T04:28:14;18.63;;;4.05;;
61553;SDS011;47425;51.976;5.326;2023-07-30T04:30:42;16.13;;;4.03;;
61553;SDS011;47425;51.976;5.326;2023-07-30T04:33:12;24.25;;;6.60;;
61553;SDS011;47425;51.976;5.326;2023-07-30T04:35:41;6.57;;;2.40;;
61553;SDS011;47425;51.976;5.326;2023-07-30T04:38:09;7.32;;;2.53;;
61553;SDS011;47425;51.976;5.326;2023-07-30T04:40:39;7.32;;;2.33;;
61553;SDS011;47425;51.976;5.326;2023-07-30T04:43:09;5.85;;;2.08;;
61553;SDS011;47425;51.976;5.326;2023-07-30T04:45:36;6.97;;;2.38;;
61553;SDS011;47425;51.976;5.326;2023-07-30T04:48:08;7.85;;;2.38;;
61553;SDS011;47425;51.976;5.326;2023-07-30T04:50:35;13.57;;;4.72;;
61553;SDS011;47425;51.976;5.326;2023-07-30T04:55:33;7.22;;;2.22;;
61553;SDS011;47425;51.976;5.326;2023-07-30T04:58:02;8.00;;;2.40;;
61553;SDS011;47425;51.976;5.326;2023-07-30T05:00:29;13.15;;;4.03;;
61553;SDS011;47425;51.976;5.326;2023-07-30T05:02:56;12.15;;;3.75;;
61553;SDS011;47425;51.976;5.326;2023-07-30T05:05:22;10.68;;;3.88;;
61553;SDS011;47425;51.976;5.326;2023-07-30T05:07:52;8.18;;;2.92;;
61553;SDS011;47425;51.976;5.326;2023-07-30T05:10:18;18.38;;;5.72;;
61553;SDS011;47425;51.976;5.326;2023-07-30T05:12:45;14.93;;;4.28;;
61553;SDS011;47425;51.976;5.326;2023-07-30T05:15:14;10.75;;;4.32;;
61553;SDS011;47425;51.976;5.326;2023-07-30T05:17:43;16.13;;;5.22;;
61553;SDS011;47425;51.976;5.326;2023-07-30T05:20:11;23.13;;;5.90;;
61553;SDS011;47425;51.976;5.326;2023-07-30T05:22:41;14.20;;;4.25;;
61553;SDS011;47425;51.976;5.326;2023-07-30T05:25:11;11.13;;;3.55;;
61553;SDS011;47425;51.976;5.326;2023-07-30T05:27:38;16.58;;;5.05;;
61553;SDS011;47425;51.976;5.326;2023-07-30T05:30:05;12.65;;;4.15;;
61553;SDS011;47425;51.976;5.326;2023-07-30T05:32:34;7.55;;;2.58;;
61553;SDS011;47425;51.976;5.326;2023-07-30T05:35:02;8.40;;;2.72;;
61553;SDS011;47425;51.976;5.326;2023-07-30T05:37:29;8.55;;;2.75;;
61553;SDS011;47425;51.976;5.326;2023-07-30T05:39:55;18.73;;;5.35;;
61553;SDS011;47425;51.976;5.326;2023-07-30T05:42:22;9.45;;;3.33;;
61553;SDS011;47425;51.976;5.326;2023-07-30T05:44:49;7.90;;;2.72;;
61553;SDS011;47425;51.976;5.326;2023-07-30T05:47:17;8.32;;;2.42;;
61553;SDS011;47425;51.976;5.326;2023-07-30T05:49:48;11.30;;;2.88;;
61553;SDS011;47425;51.976;5.326;2023-07-30T05:52:15;7.45;;;2.53;;
61553;SDS011;47425;51.976;5.326;2023-07-30T05:54:41;6.13;;;2.33;;
61553;SDS011;47425;51.976;5.326;2023-07-30T05:57:08;12.07;;;3.92;;
61553;SDS011;47425;51.976;5.326;2023-07-30T05:59:39;10.75;;;3.33;;
61553;SDS011;47425;51.976;5.326;2023-07-30T06:02:13;8.30;;;3.03;;
61553;SDS011;47425;51.976;5.326;2023-07-30T06:04:39;6.97;;;2.92;;
61553;SDS011;47425;51.976;5.326;2023-07-30T06:07:07;17.70;;;5.28;;
61553;SDS011;47425;51.976;5.326;2023-07-30T06:09:34;18.42;;;5.68;;
61553;SDS011;47425;51.976;5.326;2023-07-30T06:12:03;8.43;;;3.13;;
61553;SDS011;47425;51.976;5.326;2023-07-30T06:17:00;10.40;;;3.03;;
61553;SDS011;47425;51.976;5.326;2023-07-30T06:19:27;12.52;;;3.83;;
61553;SDS011;47425;51.976;5.326;2023-07-30T06:21:53;10.38;;;4.00;;
61553;SDS011;47425;51.976;5.326;2023-07-30T06:24:23;19.65;;;5.88;;
61553;SDS011;47425;51.976;5.326;2023-07-30T06:26:52;20.60;;;5.80;;
61553;SDS011;47425;51.976;5.326;2023-07-30T06:31:49;6.50;;;2.40;;
61553;SDS011;47425;51.976;5.326;2023-07-30T06:34:16;10.60;;;3.40;;
61553;SDS011;47425;51.976;5.326;2023-07-30T06:36:43;9.30;;;2.95;;
61553;SDS011;47425;51.976;5.326;2023-07-30T06:39:11;6.30;;;2.47;;
61553;SDS011;47425;51.976;5.326;2023-07-30T06:41:39;8.32;;;3.13;;
61553;SDS011;47425;51.976;5.326;2023-07-30T06:44:06;12.55;;;3.95;;
61553;SDS011;47425;51.976;5.326;2023-07-30T06:46:33;13.48;;;4.05;;
61553;SDS011;47425;51.976;5.326;2023-07-30T06:49:00;17.85;;;5.13;;
61553;SDS011;47425;51.976;5.326;2023-07-30T06:51:31;14.52;;;3.78;;
61553;SDS011;47425;51.976;5.326;2023-07-30T06:53:59;15.90;;;3.55;;
61553;SDS011;47425;51.976;5.326;2023-07-30T06:56:28;9.07;;;3.13;;
61553;SDS011;47425;51.976;5.326;2023-07-30T06:58:56;6.45;;;3.10;;
61553;SDS011;47425;51.976;5.326;2023-07-30T07:01:24;14.90;;;5.22;;
61553;SDS011;47425;51.976;5.326;2023-07-30T07:06:19;14.02;;;3.80;;
61553;SDS011;47425;51.976;5.326;2023-07-30T07:08:48;10.50;;;3.63;;
61553;SDS011;47425;51.976;5.326;2023-07-30T07:11:17;13.65;;;3.65;;
61553;SDS011;47425;51.976;5.326;2023-07-30T07:13:43;9.35;;;2.92;;
61553;SDS011;47425;51.976;5.326;2023-07-30T07:16:13;10.85;;;3.35;;
61553;SDS011;47425;51.976;5.326;2023-07-30T07:18:39;14.05;;;3.70;;
61553;SDS011;47425;51.976;5.326;2023-07-30T07:21:06;9.48;;;3.38;;
61553;SDS011;47425;51.976;5.326;2023-07-30T07:23:34;9.75;;;3.15;;
61553;SDS011;47425;51.976;5.326;2023-07-30T07:26:02;14.23;;;3.88;;
61553;SDS011;47425;51.976;5.326;2023-07-30T07:28:32;17.85;;;4.40;;
61553;SDS011;47425;51.976;5.326;2023-07-30T07:30:59;18.17;;;4.00;;
61553;SDS011;47425;51.976;5.326;2023-07-30T07:33:29;16.35;;;3.72;;
61553;SDS011;47425;51.976;5.326;2023-07-30T07:36:02;11.75;;;3.45;;
61553;SDS011;47425;51.976;5.326;2023-07-30T07:38:31;13.55;;;4.00;;
61553;SDS011;47425;51.976;5.326;2023-07-30T07:40:58;15.35;;;4.45;;
61553;SDS011;47425;51.976;5.326;2023-07-30T07:43:25;11.40;;;3.30;;
61553;SDS011;47425;51.976;5.326;2023-07-30T07:45:52;10.50;;;3.05;;
61553;SDS011;47425;51.976;5.326;2023-07-30T07:48:19;14.02;;;3.88;;
61553;SDS011;47425;51.976;5.326;2023-07-30T07:50:47;14.93;;;4.53;;
61553;SDS011;47425;51.976;5.326;2023-07-30T07:53:15;18.00;;;3.80;;
61553;SDS011;47425;51.976;5.326;2023-07-30T07:55:43;21.05;;;4.40;;
61553;SDS011;47425;51.976;5.326;2023-07-30T08:00:39;16.42;;;4.53;;
61553;SDS011;47425;51.976;5.326;2023-07-30T08:03:06;9.63;;;3.22;;
61553;SDS011;47425;51.976;5.326;2023-07-30T08:05:34;17.50;;;3.97;;
61553;SDS011;47425;51.976;5.326;2023-07-30T08:08:03;12.27;;;3.38;;
61553;SDS011;47425;51.976;5.326;2023-07-30T08:10:30;11.07;;;3.25;;
61553;SDS011;47425;51.976;5.326;2023-07-30T08:12:57;10.77;;;2.97;;
61553;SDS011;47425;51.976;5.326;2023-07-30T08:15:24;18.30;;;4.50;;
61553;SDS011;47425;51.976;5.326;2023-07-30T08:17:54;18.40;;;4.07;;
61553;SDS011;47425;51.976;5.326;2023-07-30T08:20:22;9.05;;;3.42;;
61553;SDS011;47425;51.976;5.326;2023-07-30T08:22:50;12.05;;;3.33;;
61553;SDS011;47425;51.976;5.326;2023-07-30T08:27:49;10.52;;;3.40;;
61553;SDS011;47425;51.976;5.326;2023-07-30T08:30:16;13.32;;;3.65;;
61553;SDS011;47425;51.976;5.326;2023-07-30T08:32:45;16.60;;;3.90;;
61553;SDS011;47425;51.976;5.326;2023-07-30T08:35:16;8.15;;;2.90;;
61553;SDS011;47425;51.976;5.326;2023-07-30T08:37:43;17.35;;;3.95;;
61553;SDS011;47425;51.976;5.326;2023-07-30T08:40:10;13.30;;;3.80;;
61553;SDS011;47425;51.976;5.326;2023-07-30T08:42:41;13.15;;;3.45;;
61553;SDS011;47425;51.976;5.326;2023-07-30T08:45:11;9.98;;;3.33;;
61553;SDS011;47425;51.976;5.326;2023-07-30T08:47:40;11.82;;;2.83;;
61553;SDS011;47425;51.976;5.326;2023-07-30T08:50:07;13.88;;;3.05;;
61553;SDS011;47425;51.976;5.326;2023-07-30T08:55:04;16.00;;;3.83;;
61553;SDS011;47425;51.976;5.326;2023-07-30T09:00:04;13.07;;;3.35;;
61553;SDS011;47425;51.976;5.326;2023-07-30T09:02:37;9.02;;;2.80;;
61553;SDS011;47425;51.976;5.326;2023-07-30T09:05:08;14.30;;;4.30;;
61553;SDS011;47425;51.976;5.326;2023-07-30T09:07:35;15.43;;;3.50;;
61553;SDS011;47425;51.976;5.326;2023-07-30T09:10:02;9.48;;;2.80;;
61553;SDS011;47425;51.976;5.326;2023-07-30T09:14:57;8.57;;;2.47;;
61553;SDS011;47425;51.976;5.326;2023-07-30T09:17:25;7.78;;;2.88;;
61553;SDS011;47425;51.976;5.326;2023-07-30T09:19:55;13.45;;;3.65;;
61553;SDS011;47425;51.976;5.326;2023-07-30T09:22:25;10.25;;;2.58;;
61553;SDS011;47425;51.976;5.326;2023-07-30T09:24:53;12.70;;;3.38;;
61553;SDS011;47425;51.976;5.326;2023-07-30T09:27:25;17.17;;;3.03;;
61553;SDS011;47425;51.976;5.326;2023-07-30T09:29:53;12.45;;;3.05;;
61553;SDS011;47425;51.976;5.326;2023-07-30T09:32:26;11.07;;;2.85;;
61553;SDS011;47425;51.976;5.326;2023-07-30T09:34:54;11.00;;;3.47;;
61553;SDS011;47425;51.976;5.326;2023-07-30T09:37:30;20.35;;;3.55;;
61553;SDS011;47425;51.976;5.326;2023-07-30T09:39:58;6.43;;;2.28;;
61553;SDS011;47425;51.976;5.326;2023-07-30T09:42:28;13.85;;;2.90;;
61553;SDS011;47425;51.976;5.326;2023-07-30T09:45:05;9.10;;;2.63;;
61553;SDS011;47425;51.976;5.326;2023-07-30T09:47:35;9.15;;;2.67;;
61553;SDS011;47425;51.976;5.326;2023-07-30T09:50:03;8.32;;;2.55;;
61553;SDS011;47425;51.976;5.326;2023-07-30T09:52:31;8.95;;;3.42;;
61553;SDS011;47425;51.976;5.326;2023-07-30T09:54:59;16.30;;;3.00;;
61553;SDS011;47425;51.976;5.326;2023-07-30T09:57:27;9.38;;;2.53;;
61553;SDS011;47425;51.976;5.326;2023-07-30T09:59:54;11.30;;;3.08;;
61553;SDS011;47425;51.976;5.326;2023-07-30T10:02:20;8.18;;;2.22;;
61553;SDS011;47425;51.976;5.326;2023-07-30T10:04:50;10.52;;;2.75;;
61553;SDS011;47425;51.976;5.326;2023-07-30T10:07:22;9.02;;;2.20;;
61553;SDS011;47425;51.976;5.326;2023-07-30T10:09:51;8.88;;;2.75;;
61553;SDS011;47425;51.976;5.326;2023-07-30T10:12:21;9.93;;;2.53;;
61553;SDS011;47425;51.976;5.326;2023-07-30T10:14:51;8.05;;;2.58;;
61553;SDS011;47425;51.976;5.326;2023-07-30T10:17:18;8.07;;;2.45;;
61553;SDS011;47425;51.976;5.326;2023-07-30T10:19:46;10.00;;;2.20;;
61553;SDS011;47425;51.976;5.326;2023-07-30T10:22:22;8.20;;;2.20;;
61553;SDS011;47425;51.976;5.326;2023-07-30T10:24:56;9.00;;;2.50;;
61553;SDS011;47425;51.976;5.326;2023-07-30T10:27:23;6.75;;;1.77;;
61553;SDS011;47425;51.976;5.326;2023-07-30T10:30:07;10.20;;;2.60;;
61553;SDS011;47425;51.976;5.326;2023-07-30T10:32:39;7.78;;;2.33;;
61553;SDS011;47425;51.976;5.326;2023-07-30T10:35:08;8.65;;;2.35;;
61553;SDS011;47425;51.976;5.326;2023-07-30T10:37:58;10.23;;;2.80;;
61553;SDS011;47425;51.976;5.326;2023-07-30T10:40:24;10.05;;;2.75;;
61553;SDS011;47425;51.976;5.326;2023-07-30T10:42:53;12.25;;;2.30;;
61553;SDS011;47425;51.976;5.326;2023-07-30T10:47:52;6.65;;;2.22;;
61553;SDS011;47425;51.976;5.326;2023-07-30T10:50:21;11.43;;;2.63;;
61553;SDS011;47425;51.976;5.326;2023-07-30T10:52:48;9.70;;;2.75;;
61553;SDS011;47425;51.976;5.326;2023-07-30T10:55:16;13.57;;;2.53;;
61553;SDS011;47425;51.976;5.326;2023-07-30T10:57:43;5.97;;;1.75;;
61553;SDS011;47425;51.976;5.326;2023-07-30T11:00:19;8.27;;;1.98;;
61553;SDS011;47425;51.976;5.326;2023-07-30T11:02:52;9.77;;;2.60;;
61553;SDS011;47425;51.976;5.326;2023-07-30T11:05:19;7.53;;;2.15;;
61553;SDS011;47425;51.976;5.326;2023-07-30T11:07:50;6.38;;;2.00;;
61553;SDS011;47425;51.976;5.326;2023-07-30T11:10:19;8.65;;;2.00;;
61553;SDS011;47425;51.976;5.326;2023-07-30T11:12:48;4.65;;;1.67;;
61553;SDS011;47425;51.976;5.326;2023-07-30T11:15:15;7.80;;;2.00;;
61553;SDS011;47425;51.976;5.326;2023-07-30T11:17:42;6.50;;;1.77;;
61553;SDS011;47425;51.976;5.326;2023-07-30T11:20:21;5.25;;;1.30;;
61553;SDS011;47425;51.976;5.326;2023-07-30T11:22:48;8.80;;;1.85;;
61553;SDS011;47425;51.976;5.326;2023-07-30T11:25:16;5.25;;;1.77;;
61553;SDS011;47425;51.976;5.326;2023-07-30T11:27:48;6.68;;;1.77;;
61553;SDS011;47425;51.976;5.326;2023-07-30T11:30:15;4.68;;;1.63;;
61553;SDS011;47425;51.976;5.326;2023-07-30T11:32:42;12.98;;;2.17;;
61553;SDS011;47425;51.976;5.326;2023-07-30T11:35:12;7.13;;;2.00;;
61553;SDS011;47425;51.976;5.326;2023-07-30T11:37:41;9.05;;;1.60;;
61553;SDS011;47425;51.976;5.326;2023-07-30T11:40:10;6.22;;;1.48;;
61553;SDS011;47425;51.976;5.326;2023-07-30T11:42:38;7.70;;;2.00;;
61553;SDS011;47425;51.976;5.326;2023-07-30T11:45:18;5.63;;;1.65;;
61553;SDS011;47425;51.976;5.326;2023-07-30T11:47:46;4.80;;;1.50;;
61553;SDS011;47425;51.976;5.326;2023-07-30T11:50:13;5.97;;;1.60;;
61553;SDS011;47425;51.976;5.326;2023-07-30T11:52:54;4.68;;;1.60;;
61553;SDS011;47425;51.976;5.326;2023-07-30T11:55:23;8.40;;;1.95;;
61553;SDS011;47425;51.976;5.326;2023-07-30T11:58:04;8.50;;;1.42;;
61553;SDS011;47425;51.976;5.326;2023-07-30T12:00:32;5.75;;;1.33;;
61553;SDS011;47425;51.976;5.326;2023-07-30T12:03:02;5.50;;;1.77;;
61553;SDS011;47425;51.976;5.326;2023-07-30T12:08:01;5.90;;;1.58;;
61553;SDS011;47425;51.976;5.326;2023-07-30T12:10:42;5.03;;;1.23;;
61553;SDS011;47425;51.976;5.326;2023-07-30T12:13:15;8.57;;;1.50;;
61553;SDS011;47425;51.976;5.326;2023-07-30T12:15:46;7.43;;;1.80;;
61553;SDS011;47425;51.976;5.326;2023-07-30T12:18:17;5.05;;;1.38;;
61553;SDS011;47425;51.976;5.326;2023-07-30T12:20:46;7.15;;;1.52;;
61553;SDS011;47425;51.976;5.326;2023-07-30T12:23:13;6.25;;;1.85;;
61553;SDS011;47425;51.976;5.326;2023-07-30T12:25:40;5.35;;;1.50;;
61553;SDS011;47425;51.976;5.326;2023-07-30T12:28:06;5.97;;;1.65;;
61553;SDS011;47425;51.976;5.326;2023-07-30T12:30:36;7.32;;;1.67;;
61553;SDS011;47425;51.976;5.326;2023-07-30T12:33:06;6.05;;;1.35;;
61553;SDS011;47425;51.976;5.326;2023-07-30T12:35:35;5.88;;;1.33;;
61553;SDS011;47425;51.976;5.326;2023-07-30T12:40:28;9.75;;;1.60;;
61553;SDS011;47425;51.976;5.326;2023-07-30T12:43:01;4.75;;;1.27;;
61553;SDS011;47425;51.976;5.326;2023-07-30T12:45:28;4.78;;;1.30;;
61553;SDS011;47425;51.976;5.326;2023-07-30T12:47:57;5.88;;;1.30;;
61553;SDS011;47425;51.976;5.326;2023-07-30T12:50:25;6.80;;;1.75;;
61553;SDS011;47425;51.976;5.326;2023-07-30T12:52:54;5.57;;;1.65;;
61553;SDS011;47425;51.976;5.326;2023-07-30T12:55:21;6.32;;;1.25;;
61553;SDS011;47425;51.976;5.326;2023-07-30T12:57:49;6.55;;;1.52;;
61553;SDS011;47425;51.976;5.326;2023-07-30T13:00:16;9.30;;;2.00;;
61553;SDS011;47425;51.976;5.326;2023-07-30T13:02:45;5.20;;;1.55;;
61553;SDS011;47425;51.976;5.326;2023-07-30T13:05:14;4.10;;;1.48;;
61553;SDS011;47425;51.976;5.326;2023-07-30T13:07:42;3.67;;;1.00;;
61553;SDS011;47425;51.976;5.326;2023-07-30T13:10:12;4.53;;;1.38;;
61553;SDS011;47425;51.976;5.326;2023-07-30T13:12:40;8.23;;;1.63;;
61553;SDS011;47425;51.976;5.326;2023-07-30T13:15:07;4.15;;;1.33;;
61553;SDS011;47425;51.976;5.326;2023-07-30T13:17:37;4.35;;;1.60;;
61553;SDS011;47425;51.976;5.326;2023-07-30T13:20:05;5.22;;;1.27;;
61553;SDS011;47425;51.976;5.326;2023-07-30T13:22:32;5.63;;;1.23;;
61553;SDS011;47425;51.976;5.326;2023-07-30T13:25:01;4.05;;;1.02;;
61553;SDS011;47425;51.976;5.326;2023-07-30T13:29:55;4.07;;;1.25;;
61553;SDS011;47425;51.976;5.326;2023-07-30T13:32:24;4.40;;;1.25;;
61553;SDS011;47425;51.976;5.326;2023-07-30T13:34:51;4.53;;;1.13;;
61553;SDS011;47425;51.976;5.326;2023-07-30T13:39:45;5.80;;;1.33;;
61553;SDS011;47425;51.976;5.326;2023-07-30T13:42:14;4.63;;;1.40;;
61553;SDS011;47425;51.976;5.326;2023-07-30T13:44:40;5.95;;;1.70;;
61553;SDS011;47425;51.976;5.326;2023-07-30T13:47:07;4.38;;;1.35;;
61553;SDS011;47425;51.976;5.326;2023-07-30T13:49:37;4.43;;;1.40;;
61553;SDS011;47425;51.976;5.326;2023-07-30T13:52:04;6.32;;;1.55;;
61553;SDS011;47425;51.976;5.326;2023-07-30T13:54:31;4.28;;;1.80;;
61553;SDS011;47425;51.976;5.326;2023-07-30T13:56:58;5.05;;;1.63;;
61553;SDS011;47425;51.976;5.326;2023-07-30T13:59:26;5.93;;;1.88;;
61553;SDS011;47425;51.976;5.326;2023-07-30T14:01:59;3.75;;;1.80;;
61553;SDS011;47425;51.976;5.326;2023-07-30T14:04:26;3.53;;;1.67;;
61553;SDS011;47425;51.976;5.326;2023-07-30T14:06:53;3.75;;;1.63;;
61553;SDS011;47425;51.976;5.326;2023-07-30T14:09:19;3.78;;;2.05;;
61553;SDS011;47425;51.976;5.326;2023-07-30T14:11:46;3.78;;;1.40;;
61553;SDS011;47425;51.976;5.326;2023-07-30T14:14:15;7.07;;;2.10;;
61553;SDS011;47425;51.976;5.326;2023-07-30T14:16:43;2.70;;;1.40;;
61553;SDS011;47425;51.976;5.326;2023-07-30T14:19:09;6.00;;;2.25;;
61553;SDS011;47425;51.976;5.326;2023-07-30T14:21:36;7.72;;;3.60;;
61553;SDS011;47425;51.976;5.326;2023-07-30T14:24:05;5.50;;;3.40;;
61553;SDS011;47425;51.976;5.326;2023-07-30T14:26:33;16.90;;;8.32;;
61553;SDS011;47425;51.976;5.326;2023-07-30T14:28:59;9.95;;;4.82;;
61553;SDS011;47425;51.976;5.326;2023-07-30T14:31:30;10.70;;;4.07;;
61553;SDS011;47425;51.976;5.326;2023-07-30T14:36:25;9.07;;;4.55;;
61553;SDS011;47425;51.976;5.326;2023-07-30T14:38:53;12.52;;;7.00;;
61553;SDS011;47425;51.976;5.326;2023-07-30T14:41:19;22.38;;;10.00;;
61553;SDS011;47425;51.976;5.326;2023-07-30T14:43:48;10.88;;;5.38;;
61553;SDS011;47425;51.976;5.326;2023-07-30T14:46:15;10.20;;;4.40;;
61553;SDS011;47425;51.976;5.326;2023-07-30T14:48:43;13.02;;;5.07;;
61553;SDS011;47425;51.976;5.326;2023-07-30T14:51:11;12.40;;;4.50;;
61553;SDS011;47425;51.976;5.326;2023-07-30T14:53:37;11.18;;;5.18;;
61553;SDS011;47425;51.976;5.326;2023-07-30T14:56:04;10.98;;;5.15;;
61553;SDS011;47425;51.976;5.326;2023-07-30T14:58:31;16.45;;;6.65;;
61553;SDS011;47425;51.976;5.326;2023-07-30T15:01:00;9.32;;;5.07;;
61553;SDS011;47425;51.976;5.326;2023-07-30T15:03:31;10.98;;;4.85;;
61553;SDS011;47425;51.976;5.326;2023-07-30T15:06:04;8.38;;;4.45;;
61553;SDS011;47425;51.976;5.326;2023-07-30T15:08:32;11.60;;;4.30;;
61553;SDS011;47425;51.976;5.326;2023-07-30T15:11:00;8.00;;;4.50;;
61553;SDS011;47425;51.976;5.326;2023-07-30T15:13:29;9.93;;;3.63;;
61553;SDS011;47425;51.976;5.326;2023-07-30T15:15:57;11.13;;;4.32;;
61553;SDS011;47425;51.976;5.326;2023-07-30T15:18:25;9.57;;;2.40;;
61553;SDS011;47425;51.976;5.326;2023-07-30T15:20:52;9.15;;;3.35;;
61553;SDS011;47425;51.976;5.326;2023-07-30T15:23:19;5.43;;;3.30;;
61553;SDS011;47425;51.976;5.326;2023-07-30T15:25:47;9.00;;;3.80;;
61553;SDS011;47425;51.976;5.326;2023-07-30T15:28:17;10.27;;;3.50;;
61553;SDS011;47425;51.976;5.326;2023-07-30T15:30:44;9.68;;;3.72;;
61553;SDS011;47425;51.976;5.326;2023-07-30T15:33:14;10.98;;;3.00;;